createdAt,value
2019-04-25T00:01:34.938Z,15.18
2019-04-25T00:04:04.481Z,15.20
2019-04-25T00:06:34.164Z,15.22
2019-04-25T00:09:04.836Z,15.20
2019-04-25T00:11:33.922Z,15.19
2019-04-25T00:14:02.975Z,15.19
2019-04-25T00:16:33.625Z,15.17
2019-04-25T00:19:02.681Z,15.14
2019-04-25T00:21:44.610Z,15.11
2019-04-25T00:24:32.052Z,15.10
2019-04-25T00:27:02.190Z,15.08
2019-04-25T00:29:31.901Z,15.06
2019-04-25T00:32:01.663Z,15.03
2019-04-25T00:34:31.672Z,15.00
2019-04-25T00:37:02.520Z,14.96
2019-04-25T00:39:32.015Z,14.94
2019-04-25T00:42:02.368Z,14.89
2019-04-25T00:44:31.929Z,14.86
2019-04-25T00:47:02.459Z,14.82
2019-04-25T00:49:32.243Z,14.76
2019-04-25T00:52:01.958Z,14.72
2019-04-25T00:54:31.574Z,14.68
2019-04-25T00:57:02.057Z,14.65
2019-04-25T00:59:46.867Z,14.63
2019-04-25T01:02:31.486Z,14.63
2019-04-25T01:05:01.907Z,14.62
2019-04-25T01:07:34.079Z,14.61
2019-04-25T01:10:02.624Z,14.57
2019-04-25T01:12:31.814Z,14.56
2019-04-25T01:15:01.670Z,14.54
2019-04-25T01:17:31.494Z,14.52
2019-04-25T01:20:00.674Z,14.46
2019-04-25T01:22:29.756Z,14.39
2019-04-25T01:24:58.820Z,14.30
2019-04-25T01:27:27.956Z,14.24
2019-04-25T01:29:57.021Z,14.17
2019-04-25T01:32:36.350Z,14.13
2019-04-25T01:35:19.940Z,14.08
2019-04-25T01:37:56.090Z,14.03
2019-04-25T01:40:48.522Z,13.98
2019-04-25T01:43:24.875Z,13.95
2019-04-25T01:45:55.976Z,13.90
2019-04-25T01:48:25.074Z,13.85
2019-04-25T01:50:55.401Z,13.80
2019-04-25T01:53:24.608Z,13.74
2019-04-25T01:56:02.299Z,13.70
2019-04-25T01:58:24.641Z,13.70
2019-04-25T02:00:55.647Z,13.67
2019-04-25T02:03:27.105Z,13.63
2019-04-25T02:05:56.104Z,13.60
2019-04-25T02:08:26.167Z,13.58
2019-04-25T02:11:06.357Z,13.56
2019-04-25T02:13:35.814Z,13.55
2019-04-25T02:16:05.825Z,13.53
2019-04-25T02:18:34.915Z,13.52
2019-04-25T02:21:04.567Z,13.51
2019-04-25T02:23:34.125Z,13.49
2019-04-25T02:26:11.740Z,13.43
2019-04-25T02:28:34.133Z,13.37
2019-04-25T02:31:08.152Z,13.34
2019-04-25T02:33:34.299Z,13.29
2019-04-25T02:36:08.264Z,13.23
2019-04-25T02:38:34.398Z,13.18
2019-04-25T02:41:08.429Z,13.13
2019-04-25T02:43:35.055Z,13.08
2019-04-25T02:46:30.179Z,13.03
2019-04-25T02:49:09.725Z,12.96
2019-04-25T02:51:46.642Z,12.91
2019-04-25T02:54:15.750Z,12.86
2019-04-25T02:56:46.711Z,12.78
2019-04-25T02:59:15.605Z,12.72
2019-04-25T03:01:44.767Z,12.65
2019-04-25T03:04:14.559Z,12.60
2019-04-25T03:06:45.267Z,12.52
2019-04-25T03:09:15.631Z,12.49
2019-04-25T03:11:47.342Z,12.38
2019-04-25T03:14:15.653Z,12.30
2019-04-25T03:16:45.019Z,12.26
2019-04-25T03:19:25.929Z,12.21
2019-04-25T03:21:55.164Z,12.16
2019-04-25T03:24:25.041Z,12.11
2019-04-25T03:26:54.369Z,12.05
2019-04-25T03:29:24.799Z,12.01
2019-04-25T03:31:56.132Z,11.96
2019-04-25T03:34:25.452Z,11.91
2019-04-25T03:36:54.699Z,11.86
2019-04-25T03:39:24.761Z,11.79
2019-04-25T03:41:54.584Z,11.77
2019-04-25T03:44:25.275Z,11.71
2019-04-25T03:46:54.525Z,11.66
2019-04-25T03:49:23.890Z,11.58
2019-04-25T03:51:53.823Z,11.49
2019-04-25T03:54:23.535Z,11.44
2019-04-25T03:56:55.873Z,11.42
2019-04-25T03:59:23.719Z,11.41
2019-04-25T04:01:53.780Z,11.39
2019-04-25T04:04:23.773Z,11.37
2019-04-25T04:06:53.753Z,11.35
2019-04-25T04:09:24.024Z,11.31
2019-04-25T04:11:53.556Z,11.25
2019-04-25T04:14:23.959Z,11.16
2019-04-25T04:17:23.740Z,11.09
2019-04-25T04:20:10.976Z,11.03
2019-04-25T04:22:43.849Z,11.01
2019-04-25T04:25:14.666Z,11.01
2019-04-25T04:27:43.876Z,11.02
2019-04-25T04:30:14.457Z,11.01
2019-04-25T04:32:44.193Z,11.02
2019-04-25T04:35:14.756Z,11.00
2019-04-25T04:37:44.215Z,11.01
2019-04-25T04:40:15.819Z,11.00
2019-04-25T04:42:44.106Z,11.00
2019-04-25T04:45:14.264Z,11.01
2019-04-25T04:47:43.995Z,11.01
2019-04-25T04:50:14.500Z,11.02
2019-04-25T04:52:44.057Z,11.02
2019-04-25T04:55:15.770Z,11.02
2019-04-25T04:57:44.911Z,11.02
2019-04-25T05:00:14.635Z,11.01
2019-04-25T05:03:04.472Z,11.02
2019-04-25T05:05:44.061Z,11.02
2019-04-25T05:08:17.315Z,10.99
2019-04-25T05:10:46.455Z,10.99
2019-04-25T05:13:16.688Z,10.95
2019-04-25T05:15:46.095Z,10.84
2019-04-25T05:18:20.651Z,10.80
2019-04-25T05:20:45.913Z,10.83
2019-04-25T05:23:15.989Z,10.87
2019-04-25T05:25:45.364Z,10.88
2019-04-25T05:28:16.187Z,10.92
2019-04-25T05:30:53.637Z,10.97
2019-04-25T05:33:22.998Z,11.00
2019-04-25T05:35:53.914Z,11.01
2019-04-25T05:38:24.355Z,11.02
2019-04-25T05:41:01.280Z,11.03
2019-04-25T05:43:30.380Z,11.05
2019-04-25T05:45:59.541Z,11.09
2019-04-25T05:48:28.566Z,11.12
2019-04-25T05:50:57.636Z,11.11
2019-04-25T05:53:26.728Z,11.12
2019-04-25T05:55:55.788Z,11.14
2019-04-25T05:58:25.876Z,11.12
2019-04-25T06:00:56.348Z,11.13
2019-04-25T06:03:26.322Z,11.16
2019-04-25T06:05:56.167Z,11.19
2019-04-25T06:08:26.878Z,11.21
2019-04-25T06:11:03.827Z,11.26
2019-04-25T06:13:44.037Z,11.29
2019-04-25T06:16:33.360Z,11.30
2019-04-25T06:19:14.208Z,11.33
2019-04-25T06:21:40.686Z,11.34
2019-04-25T06:24:33.865Z,11.33
2019-04-25T06:27:25.519Z,11.39
2019-04-25T06:30:01.522Z,11.44
2019-04-25T06:32:30.610Z,11.46
2019-04-25T06:34:59.667Z,11.49
2019-04-25T06:37:29.023Z,11.51
2019-04-25T06:39:58.091Z,11.54
2019-04-25T06:42:27.179Z,11.62
2019-04-25T06:45:28.059Z,11.68
2019-04-25T06:48:18.476Z,11.75
2019-04-25T06:50:47.548Z,11.86
2019-04-25T06:53:16.635Z,11.97
2019-04-25T06:55:45.712Z,12.05
2019-04-25T06:58:14.904Z,12.14
2019-04-25T07:00:57.488Z,12.22
2019-04-25T07:03:15.641Z,12.30
2019-04-25T07:05:44.823Z,12.37
2019-04-25T07:08:13.904Z,12.47
2019-04-25T07:10:44.618Z,12.52
2019-04-25T07:13:14.264Z,12.60
2019-04-25T07:15:43.737Z,12.68
2019-04-25T07:18:14.006Z,12.76
2019-04-25T07:20:45.243Z,12.84
2019-04-25T07:23:14.170Z,12.95
2019-04-25T07:25:48.664Z,13.05
2019-04-25T07:28:40.213Z,13.17
2019-04-25T07:31:18.907Z,13.23
2019-04-25T07:33:55.360Z,13.33
2019-04-25T07:36:25.664Z,13.43
2019-04-25T07:39:07.491Z,13.53
2019-04-25T07:41:26.031Z,13.62
2019-04-25T07:43:55.236Z,13.74
2019-04-25T07:46:24.284Z,13.86
2019-04-25T07:48:53.592Z,13.98
2019-04-25T07:51:23.723Z,14.11
2019-04-25T07:53:53.471Z,14.17
2019-04-25T07:56:24.119Z,14.21
2019-04-25T07:58:54.751Z,14.25
2019-04-25T08:01:24.106Z,14.29
2019-04-25T08:03:53.786Z,14.37
2019-04-25T08:06:24.247Z,14.46
2019-04-25T08:08:54.598Z,14.52
2019-04-25T08:11:23.838Z,14.63
2019-04-25T08:14:18.021Z,14.73
2019-04-25T08:16:49.983Z,14.84
2019-04-25T08:19:19.760Z,14.96
2019-04-25T08:21:50.021Z,15.10
2019-04-25T08:24:19.109Z,15.23
2019-04-25T08:26:48.164Z,15.31
2019-04-25T08:29:17.272Z,15.41
2019-04-25T08:31:46.341Z,15.55
2019-04-25T08:34:15.419Z,15.64
2019-04-25T08:36:45.784Z,15.70
2019-04-25T08:39:14.944Z,15.80
2019-04-25T08:41:45.602Z,15.90
2019-04-25T08:44:14.960Z,15.98
2019-04-25T08:46:48.263Z,16.05
2019-04-25T08:49:40.222Z,16.17
2019-04-25T08:52:09.304Z,16.26
2019-04-25T08:55:06.679Z,16.38
2019-04-25T08:58:06.904Z,16.49
2019-04-25T09:01:04.734Z,16.59
2019-04-25T09:03:40.280Z,16.71
2019-04-25T09:06:09.442Z,16.81
2019-04-25T09:08:39.383Z,16.94
2019-04-25T09:11:08.619Z,17.03
2019-04-25T09:13:38.630Z,17.13
2019-04-25T09:16:08.639Z,17.26
2019-04-25T09:18:38.190Z,17.35
2019-04-25T09:21:07.356Z,17.48
2019-04-25T09:23:36.574Z,17.61
2019-04-25T09:26:06.912Z,17.64
2019-04-25T09:28:38.039Z,17.74
2019-04-25T09:31:06.720Z,17.86
2019-04-25T09:33:36.297Z,18.02
2019-04-25T09:36:06.927Z,18.18
2019-04-25T09:38:36.923Z,18.33
2019-04-25T09:41:06.160Z,18.42
2019-04-25T09:43:35.841Z,18.51
2019-04-25T09:46:16.374Z,18.62
2019-04-25T09:49:04.221Z,18.72
2019-04-25T09:51:44.242Z,18.74
2019-04-25T09:54:41.997Z,18.81
2019-04-25T09:57:36.581Z,18.86
2019-04-25T10:00:08.801Z,18.88
2019-04-25T10:02:38.225Z,18.97
2019-04-25T10:05:07.357Z,19.08
2019-04-25T10:07:37.294Z,19.21
2019-04-25T10:10:08.676Z,19.27
2019-04-25T10:12:38.741Z,19.37
2019-04-25T10:15:18.152Z,19.44
2019-04-25T10:17:47.227Z,19.55
2019-04-25T10:20:18.280Z,19.63
2019-04-25T10:22:47.603Z,19.73
2019-04-25T10:25:17.059Z,19.87
2019-04-25T10:27:48.210Z,19.99
2019-04-25T10:30:23.096Z,20.08
2019-04-25T10:32:50.778Z,20.16
2019-04-25T10:35:19.915Z,20.31
2019-04-25T10:37:49.023Z,20.44
2019-04-25T10:40:18.597Z,20.54
2019-04-25T10:42:49.589Z,20.63
2019-04-25T10:45:23.160Z,20.73
2019-04-25T10:47:49.471Z,20.79
2019-04-25T10:50:18.608Z,20.88
2019-04-25T10:52:48.373Z,21.00
2019-04-25T10:55:17.479Z,21.15
2019-04-25T10:57:46.596Z,21.25
2019-04-25T11:00:28.221Z,21.43
2019-04-25T11:02:59.988Z,21.56
2019-04-25T11:05:29.072Z,21.56
2019-04-25T11:07:58.175Z,21.69
2019-04-25T11:10:27.372Z,21.81
2019-04-25T11:12:56.494Z,21.90
2019-04-25T11:15:25.579Z,22.03
2019-04-25T11:17:55.096Z,22.04
2019-04-25T11:20:27.299Z,22.25
2019-04-25T11:22:56.424Z,22.47
2019-04-25T11:25:26.108Z,22.62
2019-04-25T11:27:55.337Z,22.70
2019-04-25T11:30:25.719Z,22.83
2019-04-25T11:32:54.832Z,22.88
2019-04-25T11:35:24.276Z,23.00
2019-04-25T11:37:55.060Z,23.15
2019-04-25T11:40:35.286Z,23.39
2019-04-25T11:43:04.699Z,23.69
2019-04-25T11:45:34.861Z,23.94
2019-04-25T11:48:05.334Z,24.10
2019-04-25T11:50:36.918Z,24.28
2019-04-25T11:53:05.566Z,24.35
2019-04-25T11:55:34.664Z,24.54
2019-04-25T11:58:03.872Z,24.74
2019-04-25T12:00:33.900Z,24.88
2019-04-25T12:03:03.629Z,25.05
2019-04-25T12:05:34.279Z,25.22
2019-04-25T12:08:04.071Z,25.34
2019-04-25T12:10:34.984Z,25.50
2019-04-25T12:13:04.333Z,25.40
2019-04-25T12:15:33.553Z,25.44
2019-04-25T12:18:02.670Z,25.59
2019-04-25T12:20:34.753Z,25.70
2019-04-25T12:23:08.640Z,25.81
2019-04-25T12:25:34.583Z,25.96
2019-04-25T12:28:05.633Z,26.21
2019-04-25T12:30:40.061Z,26.21
2019-04-25T12:33:18.057Z,26.34
2019-04-25T12:35:36.490Z,26.46
2019-04-25T12:38:05.594Z,26.60
2019-04-25T12:40:34.669Z,26.72
2019-04-25T12:43:05.204Z,26.60
2019-04-25T12:45:47.302Z,26.64
2019-04-25T12:48:16.434Z,26.65
2019-04-25T12:50:46.358Z,26.80
2019-04-25T12:53:15.511Z,26.80
2019-04-25T12:55:44.584Z,26.86
2019-04-25T12:58:13.734Z,26.92
2019-04-25T13:00:51.226Z,26.93
2019-04-25T13:03:14.311Z,27.03
2019-04-25T13:05:44.250Z,27.16
2019-04-25T13:08:14.302Z,27.27
2019-04-25T13:10:44.440Z,27.46
2019-04-25T13:13:15.374Z,27.56
2019-04-25T13:15:46.017Z,27.68
2019-04-25T13:18:15.272Z,27.86
2019-04-25T13:20:44.368Z,28.01
2019-04-25T13:23:14.403Z,28.14
2019-04-25T13:25:44.243Z,28.21
2019-04-25T13:28:44.168Z,28.14
2019-04-25T13:31:33.273Z,28.12
2019-04-25T13:34:11.211Z,28.17
2019-04-25T13:36:40.301Z,28.17
2019-04-25T13:39:16.905Z,28.20
2019-04-25T13:41:46.070Z,28.21
2019-04-25T13:44:15.228Z,28.30
2019-04-25T13:46:44.307Z,28.35
2019-04-25T13:49:14.888Z,28.37
2019-04-25T13:51:43.973Z,28.34
2019-04-25T13:54:14.666Z,28.47
2019-04-25T13:56:43.953Z,28.55
2019-04-25T13:59:13.218Z,28.65
2019-04-25T14:01:44.066Z,28.63
2019-04-25T14:04:14.200Z,28.57
2019-04-25T14:06:44.014Z,28.48
2019-04-25T14:09:17.145Z,28.50
2019-04-25T14:11:46.210Z,28.49
2019-04-25T14:14:15.532Z,28.47
2019-04-25T14:17:07.070Z,28.46
2019-04-25T14:20:05.979Z,28.44
2019-04-25T14:22:35.051Z,28.45
2019-04-25T14:25:05.337Z,28.49
2019-04-25T14:27:34.495Z,28.51
2019-04-25T14:30:04.036Z,28.57
2019-04-25T14:32:33.944Z,28.58
2019-04-25T14:35:03.998Z,28.54
2019-04-25T14:37:39.220Z,28.49
2019-04-25T14:40:04.767Z,28.45
2019-04-25T14:42:33.807Z,28.33
2019-04-25T14:45:03.147Z,28.33
2019-04-25T14:47:32.177Z,28.36
2019-04-25T14:50:01.299Z,28.34
2019-04-25T14:52:30.412Z,28.28
2019-04-25T14:55:09.509Z,28.31
2019-04-25T14:57:38.590Z,28.28
2019-04-25T15:00:13.767Z,28.32
2019-04-25T15:02:42.835Z,28.36
2019-04-25T15:05:12.002Z,28.34
2019-04-25T15:07:41.100Z,28.34
2019-04-25T15:10:10.301Z,28.29
2019-04-25T15:12:39.385Z,28.22
2019-04-25T15:15:08.513Z,28.12
2019-04-25T15:17:45.226Z,28.05
2019-04-25T15:20:09.105Z,27.88
2019-04-25T15:22:38.111Z,27.72
2019-04-25T15:25:07.267Z,27.52
2019-04-25T15:27:36.304Z,27.33
2019-04-25T15:30:07.234Z,27.15
2019-04-25T15:32:37.441Z,27.02
2019-04-25T15:35:08.549Z,26.93
2019-04-25T15:37:45.771Z,26.79
2019-04-25T15:40:22.001Z,26.65
2019-04-25T15:43:06.810Z,26.52
2019-04-25T15:46:00.846Z,26.40
2019-04-25T15:48:30.918Z,26.05
2019-04-25T15:51:00.184Z,26.05
2019-04-25T15:53:29.360Z,25.99
2019-04-25T15:55:58.579Z,25.85
2019-04-25T15:58:27.694Z,25.76
2019-04-25T16:00:56.960Z,25.69
2019-04-25T16:03:26.060Z,25.61
2019-04-25T16:05:55.134Z,25.54
2019-04-25T16:08:25.102Z,25.49
2019-04-25T16:10:54.183Z,25.41
2019-04-25T16:13:23.288Z,25.32
2019-04-25T16:15:52.397Z,25.24
2019-04-25T16:18:21.516Z,25.17
2019-04-25T16:20:50.721Z,25.14
2019-04-25T16:23:20.084Z,25.09
2019-04-25T16:25:49.154Z,25.09
2019-04-25T16:28:18.270Z,25.08
2019-04-25T16:30:47.535Z,25.05
2019-04-25T16:33:16.558Z,25.03
2019-04-25T16:35:45.663Z,24.98
2019-04-25T16:38:14.784Z,24.92
2019-04-25T16:40:43.860Z,24.82
2019-04-25T16:43:15.982Z,24.72
2019-04-25T16:45:45.053Z,24.61
2019-04-25T16:48:14.422Z,24.54
2019-04-25T16:50:43.476Z,24.46
2019-04-25T16:53:12.569Z,24.37
2019-04-25T16:55:41.494Z,24.29
2019-04-25T16:58:10.584Z,24.21
2019-04-25T17:00:45.916Z,24.15
2019-04-25T17:03:16.054Z,24.08
2019-04-25T17:05:45.172Z,24.02
2019-04-25T17:08:14.445Z,23.97
2019-04-25T17:10:43.617Z,23.89
2019-04-25T17:13:12.699Z,23.80
2019-04-25T17:15:50.700Z,23.66
2019-04-25T17:18:23.180Z,23.55
2019-04-25T17:21:00.822Z,23.42
2019-04-25T17:23:30.107Z,23.37
2019-04-25T17:26:00.243Z,23.27
2019-04-25T17:28:31.375Z,23.21
2019-04-25T17:31:17.934Z,23.13
2019-04-25T17:33:53.543Z,23.05
2019-04-25T17:36:33.265Z,22.96
2019-04-25T17:39:20.475Z,22.87
2019-04-25T17:41:49.474Z,22.80
2019-04-25T17:44:18.494Z,22.71
2019-04-25T17:46:47.552Z,22.64
2019-04-25T17:49:16.629Z,22.57
2019-04-25T17:51:45.690Z,22.49
2019-04-25T17:54:14.776Z,22.43
2019-04-25T17:56:43.845Z,22.37
2019-04-25T17:59:12.932Z,22.30
2019-04-25T18:01:42.215Z,22.23
2019-04-25T18:04:11.363Z,22.16
2019-04-25T18:06:40.453Z,22.08
2019-04-25T18:09:09.527Z,22.01
2019-04-25T18:11:38.588Z,21.91
2019-04-25T18:14:07.676Z,21.84
2019-04-25T18:16:40.829Z,21.77
2019-04-25T18:19:16.475Z,21.71
2019-04-25T18:21:45.533Z,21.65
2019-04-25T18:24:32.430Z,21.59
2019-04-25T18:27:29.746Z,21.53
2019-04-25T18:29:58.856Z,21.46
2019-04-25T18:32:31.567Z,21.38
2019-04-25T18:35:05.056Z,21.31
2019-04-25T18:37:49.592Z,21.25
2019-04-25T18:40:26.700Z,21.21
2019-04-25T18:43:12.056Z,21.14
2019-04-25T18:45:44.464Z,21.09
2019-04-25T18:48:13.533Z,21.05
2019-04-25T18:50:42.815Z,21.02
2019-04-25T18:53:34.253Z,20.97
2019-04-25T18:56:25.602Z,20.94
2019-04-25T18:59:08.226Z,20.87
2019-04-25T19:01:59.072Z,20.80
2019-04-25T19:04:42.509Z,20.72
2019-04-25T19:07:22.122Z,20.64
2019-04-25T19:09:42.864Z,20.57
2019-04-25T19:12:11.991Z,20.51
2019-04-25T19:14:41.354Z,20.47
2019-04-25T19:17:11.458Z,20.43
2019-04-25T19:19:41.115Z,20.37
2019-04-25T19:22:10.272Z,20.33
2019-04-25T19:24:43.568Z,20.28
2019-04-25T19:27:10.047Z,20.23
2019-04-25T19:29:40.297Z,20.19
2019-04-25T19:32:09.519Z,20.16
2019-04-25T19:34:38.538Z,20.11
2019-04-25T19:37:07.528Z,20.06
2019-04-25T19:39:38.255Z,20.01
2019-04-25T19:42:35.561Z,19.95
2019-04-25T19:45:05.485Z,19.93
2019-04-25T19:47:34.538Z,19.90
2019-04-25T19:50:03.634Z,19.85
2019-04-25T19:52:32.696Z,19.80
2019-04-25T19:55:01.772Z,19.74
2019-04-25T19:57:30.757Z,19.71
2019-04-25T19:59:59.838Z,19.66
2019-04-25T20:02:48.728Z,19.64
2019-04-25T20:05:26.751Z,19.59
2019-04-25T20:08:14.622Z,19.56
2019-04-25T20:10:51.783Z,19.54
2019-04-25T20:13:20.851Z,19.51
2019-04-25T20:15:49.940Z,19.51
2019-04-25T20:18:18.857Z,19.50
2019-04-25T20:20:47.927Z,19.49
2019-04-25T20:23:16.982Z,19.46
2019-04-25T20:25:46.324Z,19.42
2019-04-25T20:28:15.437Z,19.38
2019-04-25T20:30:45.663Z,19.35
2019-04-25T20:33:15.315Z,19.32
2019-04-25T20:35:44.820Z,19.28
2019-04-25T20:38:15.081Z,19.24
2019-04-25T20:40:45.178Z,19.19
2019-04-25T20:43:14.946Z,19.14
2019-04-25T20:45:44.030Z,19.11
2019-04-25T20:48:12.935Z,19.05
2019-04-25T20:50:42.013Z,18.99
2019-04-25T20:53:11.007Z,18.97
2019-04-25T20:55:39.981Z,18.94
2019-04-25T20:58:09.069Z,18.91
2019-04-25T21:00:47.149Z,18.87
2019-04-25T21:03:17.195Z,18.84
2019-04-25T21:05:48.692Z,18.81
2019-04-25T21:08:18.341Z,18.78
2019-04-25T21:10:47.404Z,18.76
2019-04-25T21:13:21.235Z,18.71
2019-04-25T21:16:02.761Z,18.68
2019-04-25T21:19:00.179Z,18.63
2019-04-25T21:21:29.188Z,18.60
2019-04-25T21:23:59.075Z,18.56
2019-04-25T21:26:28.057Z,18.55
2019-04-25T21:28:57.135Z,18.54
2019-04-25T21:31:26.235Z,18.53
2019-04-25T21:33:55.487Z,18.49
2019-04-25T21:36:24.759Z,18.46
2019-04-25T21:38:54.001Z,18.43
2019-04-25T21:41:41.542Z,18.38
2019-04-25T21:44:10.801Z,18.36
2019-04-25T21:46:39.812Z,18.34
2019-04-25T21:49:09.052Z,18.32
2019-04-25T21:51:38.031Z,18.32
2019-04-25T21:54:07.115Z,18.32
2019-04-25T21:56:36.449Z,18.35
2019-04-25T21:59:05.806Z,18.34
2019-04-25T22:01:38.571Z,18.35
2019-04-25T22:04:07.749Z,18.36
2019-04-25T22:06:37.197Z,18.36
2019-04-25T22:09:10.375Z,18.36
2019-04-25T22:11:39.433Z,18.35
2019-04-25T22:14:09.371Z,18.37
2019-04-25T22:16:38.711Z,18.37
2019-04-25T22:19:07.973Z,18.36
2019-04-25T22:21:38.573Z,18.36
2019-04-25T22:24:13.801Z,18.37
2019-04-25T22:26:38.968Z,18.38
2019-04-25T22:29:08.564Z,18.36
2019-04-25T22:31:45.002Z,18.36
2019-04-25T22:34:21.757Z,18.33
2019-04-25T22:36:50.810Z,18.31
2019-04-25T22:39:19.974Z,18.27
2019-04-25T22:41:50.256Z,18.25
2019-04-25T22:44:21.669Z,18.21
2019-04-25T22:46:51.023Z,18.17
2019-04-25T22:49:20.088Z,18.14
2019-04-25T22:51:49.658Z,18.11
2019-04-25T22:54:19.025Z,18.08
2019-04-25T22:56:48.077Z,18.04
2019-04-25T22:59:17.540Z,18.01
2019-04-25T23:02:11.715Z,17.98
2019-04-25T23:05:09.491Z,17.93
2019-04-25T23:07:29.811Z,17.90
2019-04-25T23:09:59.170Z,17.86
2019-04-25T23:12:28.499Z,17.85
2019-04-25T23:14:57.588Z,17.82
2019-04-25T23:17:26.566Z,17.80
2019-04-25T23:19:55.747Z,17.78
2019-04-25T23:22:24.804Z,17.76
2019-04-25T23:24:58.705Z,17.75
2019-04-25T23:27:35.768Z,17.74
2019-04-25T23:30:06.480Z,17.72
2019-04-25T23:32:35.884Z,17.69
2019-04-25T23:35:14.776Z,17.66
2019-04-25T23:37:35.885Z,17.64
2019-04-25T23:40:05.160Z,17.63
2019-04-25T23:42:35.175Z,17.61
2019-04-25T23:45:05.579Z,17.58
2019-04-25T23:47:35.343Z,17.57
2019-04-25T23:50:04.652Z,17.56
2019-04-25T23:52:33.700Z,17.54
2019-04-25T23:55:02.792Z,17.52
2019-04-25T23:57:31.843Z,17.49
